sensor_id;sensor_type;location;lat;lon;timestamp;P1;durP1;ratioP1;P2;durP2;ratioP2
1479;SDS011;732;51.698;4.886;2023-04-24T00:01:14;13.50;;;9.43;;
1479;SDS011;732;51.698;4.886;2023-04-24T00:03:43;16.03;;;9.97;;
1479;SDS011;732;51.698;4.886;2023-04-24T00:06:11;16.80;;;10.80;;
1479;SDS011;732;51.698;4.886;2023-04-24T00:08:43;18.40;;;11.80;;
1479;SDS011;732;51.698;4.886;2023-04-24T00:11:11;21.30;;;12.60;;
1479;SDS011;732;51.698;4.886;2023-04-24T00:13:48;19.77;;;13.60;;
1479;SDS011;732;51.698;4.886;2023-04-24T00:16:16;24.43;;;14.37;;
1479;SDS011;732;51.698;4.886;2023-04-24T00:18:44;25.40;;;16.17;;
1479;SDS011;732;51.698;4.886;2023-04-24T00:21:14;25.30;;;16.30;;
1479;SDS011;732;51.698;4.886;2023-04-24T00:23:43;29.57;;;16.23;;
1479;SDS011;732;51.698;4.886;2023-04-24T00:26:12;28.10;;;17.37;;
1479;SDS011;732;51.698;4.886;2023-04-24T00:28:40;30.40;;;18.87;;
1479;SDS011;732;51.698;4.886;2023-04-24T00:31:10;34.10;;;19.20;;
1479;SDS011;732;51.698;4.886;2023-04-24T00:33:38;32.07;;;19.87;;
1479;SDS011;732;51.698;4.886;2023-04-24T00:36:08;26.50;;;17.07;;
1479;SDS011;732;51.698;4.886;2023-04-24T00:38:37;27.90;;;17.53;;
1479;SDS011;732;51.698;4.886;2023-04-24T00:41:05;30.30;;;17.57;;
1479;SDS011;732;51.698;4.886;2023-04-24T00:43:34;27.37;;;16.93;;
1479;SDS011;732;51.698;4.886;2023-04-24T00:46:09;28.40;;;17.30;;
1479;SDS011;732;51.698;4.886;2023-04-24T00:48:42;25.17;;;14.70;;
1479;SDS011;732;51.698;4.886;2023-04-24T00:51:11;26.03;;;15.90;;
1479;SDS011;732;51.698;4.886;2023-04-24T00:53:46;28.00;;;15.83;;
1479;SDS011;732;51.698;4.886;2023-04-24T00:56:14;22.90;;;15.23;;
1479;SDS011;732;51.698;4.886;2023-04-24T00:58:42;24.50;;;14.70;;
1479;SDS011;732;51.698;4.886;2023-04-24T01:01:13;27.60;;;15.47;;
1479;SDS011;732;51.698;4.886;2023-04-24T01:03:41;24.83;;;14.87;;
1479;SDS011;732;51.698;4.886;2023-04-24T01:06:11;23.47;;;15.27;;
1479;SDS011;732;51.698;4.886;2023-04-24T01:08:40;24.37;;;14.90;;
1479;SDS011;732;51.698;4.886;2023-04-24T01:11:12;21.23;;;14.00;;
1479;SDS011;732;51.698;4.886;2023-04-24T01:13:44;18.13;;;12.47;;
1479;SDS011;732;51.698;4.886;2023-04-24T01:16:14;19.80;;;11.50;;
1479;SDS011;732;51.698;4.886;2023-04-24T01:18:43;17.70;;;10.10;;
1479;SDS011;732;51.698;4.886;2023-04-24T01:21:15;18.10;;;11.70;;
1479;SDS011;732;51.698;4.886;2023-04-24T01:23:45;18.10;;;12.43;;
1479;SDS011;732;51.698;4.886;2023-04-24T01:26:14;19.53;;;12.10;;
1479;SDS011;732;51.698;4.886;2023-04-24T01:28:46;17.07;;;11.37;;
1479;SDS011;732;51.698;4.886;2023-04-24T01:31:15;20.40;;;12.57;;
1479;SDS011;732;51.698;4.886;2023-04-24T01:33:43;19.70;;;12.97;;
1479;SDS011;732;51.698;4.886;2023-04-24T01:36:11;23.13;;;15.30;;
1479;SDS011;732;51.698;4.886;2023-04-24T01:38:42;24.37;;;15.27;;
1479;SDS011;732;51.698;4.886;2023-04-24T01:41:15;26.97;;;17.43;;
1479;SDS011;732;51.698;4.886;2023-04-24T01:43:43;31.47;;;20.00;;
1479;SDS011;732;51.698;4.886;2023-04-24T01:46:18;33.50;;;19.83;;
1479;SDS011;732;51.698;4.886;2023-04-24T01:48:46;33.77;;;22.10;;
1479;SDS011;732;51.698;4.886;2023-04-24T01:51:15;38.63;;;24.60;;
1479;SDS011;732;51.698;4.886;2023-04-24T01:53:45;38.43;;;22.47;;
1479;SDS011;732;51.698;4.886;2023-04-24T01:56:19;37.80;;;23.30;;
1479;SDS011;732;51.698;4.886;2023-04-24T01:58:50;43.10;;;27.00;;
1479;SDS011;732;51.698;4.886;2023-04-24T02:01:21;47.20;;;25.77;;
1479;SDS011;732;51.698;4.886;2023-04-24T02:03:52;37.57;;;22.40;;
1479;SDS011;732;51.698;4.886;2023-04-24T02:06:20;39.80;;;22.40;;
1479;SDS011;732;51.698;4.886;2023-04-24T02:08:53;32.87;;;22.13;;
1479;SDS011;732;51.698;4.886;2023-04-24T02:11:21;34.13;;;22.07;;
1479;SDS011;732;51.698;4.886;2023-04-24T02:13:52;37.43;;;22.50;;
1479;SDS011;732;51.698;4.886;2023-04-24T02:16:22;32.27;;;21.97;;
1479;SDS011;732;51.698;4.886;2023-04-24T02:18:51;45.30;;;23.33;;
1479;SDS011;732;51.698;4.886;2023-04-24T02:21:23;37.47;;;21.80;;
1479;SDS011;732;51.698;4.886;2023-04-24T02:23:52;36.60;;;21.43;;
1479;SDS011;732;51.698;4.886;2023-04-24T02:26:21;38.67;;;21.73;;
1479;SDS011;732;51.698;4.886;2023-04-24T02:28:50;34.63;;;22.03;;
1479;SDS011;732;51.698;4.886;2023-04-24T02:31:19;37.20;;;22.33;;
1479;SDS011;732;51.698;4.886;2023-04-24T02:33:48;36.10;;;22.17;;
1479;SDS011;732;51.698;4.886;2023-04-24T02:36:16;39.37;;;22.70;;
1479;SDS011;732;51.698;4.886;2023-04-24T02:38:44;36.13;;;22.10;;
1479;SDS011;732;51.698;4.886;2023-04-24T02:41:14;40.50;;;23.63;;
1479;SDS011;732;51.698;4.886;2023-04-24T02:43:42;37.33;;;23.07;;
1479;SDS011;732;51.698;4.886;2023-04-24T02:46:10;38.20;;;20.77;;
1479;SDS011;732;51.698;4.886;2023-04-24T02:48:45;32.80;;;20.83;;
1479;SDS011;732;51.698;4.886;2023-04-24T02:51:19;34.10;;;22.00;;
1479;SDS011;732;51.698;4.886;2023-04-24T02:53:47;33.70;;;18.10;;
1479;SDS011;732;51.698;4.886;2023-04-24T02:56:20;33.90;;;18.67;;
1479;SDS011;732;51.698;4.886;2023-04-24T02:58:51;26.27;;;15.10;;
1479;SDS011;732;51.698;4.886;2023-04-24T03:01:21;25.30;;;15.50;;
1479;SDS011;732;51.698;4.886;2023-04-24T03:03:51;29.27;;;14.80;;
1479;SDS011;732;51.698;4.886;2023-04-24T03:06:19;21.80;;;13.43;;
1479;SDS011;732;51.698;4.886;2023-04-24T03:08:48;20.70;;;13.60;;
1479;SDS011;732;51.698;4.886;2023-04-24T03:11:21;22.53;;;14.07;;
1479;SDS011;732;51.698;4.886;2023-04-24T03:13:51;27.77;;;14.87;;
1479;SDS011;732;51.698;4.886;2023-04-24T03:16:19;25.80;;;16.50;;
1479;SDS011;732;51.698;4.886;2023-04-24T03:18:48;26.13;;;16.90;;
1479;SDS011;732;51.698;4.886;2023-04-24T03:21:19;24.03;;;14.30;;
1479;SDS011;732;51.698;4.886;2023-04-24T03:23:50;19.67;;;13.67;;
1479;SDS011;732;51.698;4.886;2023-04-24T03:26:18;19.63;;;12.80;;
1479;SDS011;732;51.698;4.886;2023-04-24T03:29:02;22.00;;;12.00;;
1479;SDS011;732;51.698;4.886;2023-04-24T03:31:36;17.90;;;13.00;;
1479;SDS011;732;51.698;4.886;2023-04-24T03:34:06;21.60;;;12.43;;
1479;SDS011;732;51.698;4.886;2023-04-24T03:36:34;22.30;;;13.00;;
1479;SDS011;732;51.698;4.886;2023-04-24T03:39:06;18.67;;;12.03;;
1479;SDS011;732;51.698;4.886;2023-04-24T03:41:37;22.17;;;12.23;;
1479;SDS011;732;51.698;4.886;2023-04-24T03:44:26;17.13;;;12.00;;
1479;SDS011;732;51.698;4.886;2023-04-24T03:46:54;18.03;;;12.03;;
1479;SDS011;732;51.698;4.886;2023-04-24T03:49:24;17.63;;;12.10;;
1479;SDS011;732;51.698;4.886;2023-04-24T03:51:52;15.90;;;8.87;;
1479;SDS011;732;51.698;4.886;2023-04-24T03:54:22;14.57;;;9.30;;
1479;SDS011;732;51.698;4.886;2023-04-24T03:56:52;14.63;;;9.37;;
1479;SDS011;732;51.698;4.886;2023-04-24T03:59:24;14.17;;;10.00;;
1479;SDS011;732;51.698;4.886;2023-04-24T04:02:05;10.93;;;8.20;;
1479;SDS011;732;51.698;4.886;2023-04-24T04:04:33;14.00;;;8.20;;
1479;SDS011;732;51.698;4.886;2023-04-24T04:07:06;13.40;;;7.33;;
1479;SDS011;732;51.698;4.886;2023-04-24T04:09:34;8.00;;;5.90;;
1479;SDS011;732;51.698;4.886;2023-04-24T04:12:03;8.17;;;5.57;;
1479;SDS011;732;51.698;4.886;2023-04-24T04:14:36;9.33;;;4.63;;
1479;SDS011;732;51.698;4.886;2023-04-24T04:17:07;5.27;;;3.60;;
1479;SDS011;732;51.698;4.886;2023-04-24T04:19:39;3.90;;;3.47;;
1479;SDS011;732;51.698;4.886;2023-04-24T04:22:10;7.00;;;3.77;;
1479;SDS011;732;51.698;4.886;2023-04-24T04:24:45;4.23;;;3.27;;
1479;SDS011;732;51.698;4.886;2023-04-24T04:27:16;4.00;;;2.50;;
1479;SDS011;732;51.698;4.886;2023-04-24T04:29:53;4.57;;;2.73;;
1479;SDS011;732;51.698;4.886;2023-04-24T04:32:23;7.30;;;3.53;;
1479;SDS011;732;51.698;4.886;2023-04-24T04:34:52;6.60;;;3.93;;
1479;SDS011;732;51.698;4.886;2023-04-24T04:37:25;7.27;;;4.90;;
1479;SDS011;732;51.698;4.886;2023-04-24T04:40:11;10.83;;;6.37;;
1479;SDS011;732;51.698;4.886;2023-04-24T04:42:51;16.13;;;7.00;;
1479;SDS011;732;51.698;4.886;2023-04-24T04:45:25;9.80;;;7.90;;
1479;SDS011;732;51.698;4.886;2023-04-24T04:48:21;20.03;;;9.93;;
1479;SDS011;732;51.698;4.886;2023-04-24T04:50:55;16.73;;;11.03;;
1479;SDS011;732;51.698;4.886;2023-04-24T04:53:23;20.30;;;11.07;;
1479;SDS011;732;51.698;4.886;2023-04-24T04:55:52;15.40;;;9.97;;
1479;SDS011;732;51.698;4.886;2023-04-24T04:58:26;18.80;;;11.17;;
1479;SDS011;732;51.698;4.886;2023-04-24T05:00:59;16.37;;;11.27;;
1479;SDS011;732;51.698;4.886;2023-04-24T05:03:35;19.57;;;13.30;;
1479;SDS011;732;51.698;4.886;2023-04-24T05:06:08;22.27;;;14.30;;
1479;SDS011;732;51.698;4.886;2023-04-24T05:08:38;18.43;;;15.00;;
1479;SDS011;732;51.698;4.886;2023-04-24T05:11:13;24.37;;;16.70;;
1479;SDS011;732;51.698;4.886;2023-04-24T05:13:42;28.03;;;16.87;;
1479;SDS011;732;51.698;4.886;2023-04-24T05:16:31;20.80;;;16.20;;
1479;SDS011;732;51.698;4.886;2023-04-24T05:19:00;19.70;;;13.53;;
1479;SDS011;732;51.698;4.886;2023-04-24T05:21:35;22.37;;;13.50;;
1479;SDS011;732;51.698;4.886;2023-04-24T05:24:04;18.40;;;10.90;;
1479;SDS011;732;51.698;4.886;2023-04-24T05:26:43;13.00;;;8.70;;
1479;SDS011;732;51.698;4.886;2023-04-24T05:29:14;10.50;;;7.37;;
1479;SDS011;732;51.698;4.886;2023-04-24T05:31:47;11.90;;;7.53;;
1479;SDS011;732;51.698;4.886;2023-04-24T05:34:17;9.80;;;6.33;;
1479;SDS011;732;51.698;4.886;2023-04-24T05:36:49;8.90;;;6.70;;
1479;SDS011;732;51.698;4.886;2023-04-24T05:39:18;16.07;;;7.13;;
1479;SDS011;732;51.698;4.886;2023-04-24T05:41:47;11.80;;;7.90;;
1479;SDS011;732;51.698;4.886;2023-04-24T05:44:15;12.63;;;7.37;;
1479;SDS011;732;51.698;4.886;2023-04-24T05:46:44;16.50;;;7.97;;
1479;SDS011;732;51.698;4.886;2023-04-24T05:49:13;11.10;;;8.00;;
1479;SDS011;732;51.698;4.886;2023-04-24T05:51:44;9.90;;;7.63;;
1479;SDS011;732;51.698;4.886;2023-04-24T05:54:12;13.60;;;8.40;;
1479;SDS011;732;51.698;4.886;2023-04-24T05:56:41;15.20;;;8.67;;
1479;SDS011;732;51.698;4.886;2023-04-24T05:59:17;21.57;;;9.90;;
1479;SDS011;732;51.698;4.886;2023-04-24T06:01:45;18.27;;;11.37;;
1479;SDS011;732;51.698;4.886;2023-04-24T06:04:19;21.67;;;13.57;;
1479;SDS011;732;51.698;4.886;2023-04-24T06:06:51;27.07;;;15.80;;
1479;SDS011;732;51.698;4.886;2023-04-24T06:09:22;26.97;;;14.73;;
1479;SDS011;732;51.698;4.886;2023-04-24T06:11:50;29.23;;;14.17;;
1479;SDS011;732;51.698;4.886;2023-04-24T06:14:23;32.73;;;18.33;;
1479;SDS011;732;51.698;4.886;2023-04-24T06:17:12;28.23;;;15.43;;
1479;SDS011;732;51.698;4.886;2023-04-24T06:19:46;25.80;;;15.40;;
1479;SDS011;732;51.698;4.886;2023-04-24T06:22:14;31.50;;;16.20;;
1479;SDS011;732;51.698;4.886;2023-04-24T06:24:42;28.30;;;16.43;;
1479;SDS011;732;51.698;4.886;2023-04-24T06:27:11;31.40;;;16.63;;
1479;SDS011;732;51.698;4.886;2023-04-24T06:29:41;30.90;;;17.00;;
1479;SDS011;732;51.698;4.886;2023-04-24T06:32:09;29.00;;;18.00;;
1479;SDS011;732;51.698;4.886;2023-04-24T06:34:40;32.57;;;16.57;;
1479;SDS011;732;51.698;4.886;2023-04-24T06:37:10;31.03;;;16.63;;
1479;SDS011;732;51.698;4.886;2023-04-24T06:39:38;25.50;;;16.57;;
1479;SDS011;732;51.698;4.886;2023-04-24T06:42:06;29.70;;;16.73;;
1479;SDS011;732;51.698;4.886;2023-04-24T06:44:35;28.73;;;15.47;;
1479;SDS011;732;51.698;4.886;2023-04-24T06:47:07;27.50;;;15.17;;
1479;SDS011;732;51.698;4.886;2023-04-24T06:49:36;35.17;;;16.10;;
1479;SDS011;732;51.698;4.886;2023-04-24T06:52:05;26.50;;;14.80;;
1479;SDS011;732;51.698;4.886;2023-04-24T06:54:35;30.47;;;11.73;;
1479;SDS011;732;51.698;4.886;2023-04-24T06:57:03;23.37;;;11.13;;
1479;SDS011;732;51.698;4.886;2023-04-24T06:59:31;24.70;;;10.13;;
1479;SDS011;732;51.698;4.886;2023-04-24T07:01:59;28.33;;;9.87;;
1479;SDS011;732;51.698;4.886;2023-04-24T07:04:32;21.50;;;9.27;;
1479;SDS011;732;51.698;4.886;2023-04-24T07:07:05;26.00;;;8.90;;
1479;SDS011;732;51.698;4.886;2023-04-24T07:09:40;15.70;;;8.80;;
1479;SDS011;732;51.698;4.886;2023-04-24T07:12:10;20.13;;;9.80;;
1479;SDS011;732;51.698;4.886;2023-04-24T07:14:39;22.47;;;9.87;;
1479;SDS011;732;51.698;4.886;2023-04-24T07:17:08;28.53;;;10.33;;
1479;SDS011;732;51.698;4.886;2023-04-24T07:19:36;28.30;;;10.27;;
1479;SDS011;732;51.698;4.886;2023-04-24T07:22:04;26.90;;;9.67;;
1479;SDS011;732;51.698;4.886;2023-04-24T07:24:34;27.70;;;10.27;;
1479;SDS011;732;51.698;4.886;2023-04-24T07:27:04;25.80;;;9.30;;
1479;SDS011;732;51.698;4.886;2023-04-24T07:29:34;27.80;;;8.90;;
1479;SDS011;732;51.698;4.886;2023-04-24T07:32:03;26.93;;;10.30;;
1479;SDS011;732;51.698;4.886;2023-04-24T07:34:32;23.57;;;10.50;;
1479;SDS011;732;51.698;4.886;2023-04-24T07:37:00;38.73;;;9.30;;
1479;SDS011;732;51.698;4.886;2023-04-24T07:39:32;27.93;;;8.60;;
1479;SDS011;732;51.698;4.886;2023-04-24T07:42:00;21.97;;;6.63;;
1479;SDS011;732;51.698;4.886;2023-04-24T07:44:30;21.20;;;7.53;;
1479;SDS011;732;51.698;4.886;2023-04-24T07:47:00;17.47;;;6.50;;
1479;SDS011;732;51.698;4.886;2023-04-24T07:49:28;25.43;;;7.83;;
1479;SDS011;732;51.698;4.886;2023-04-24T07:51:57;20.53;;;7.27;;
1479;SDS011;732;51.698;4.886;2023-04-24T07:54:26;22.63;;;5.30;;
1479;SDS011;732;51.698;4.886;2023-04-24T07:56:54;16.37;;;5.50;;
1479;SDS011;732;51.698;4.886;2023-04-24T07:59:23;33.90;;;5.07;;
1479;SDS011;732;51.698;4.886;2023-04-24T08:01:53;18.27;;;4.40;;
1479;SDS011;732;51.698;4.886;2023-04-24T08:04:21;16.97;;;4.27;;
1479;SDS011;732;51.698;4.886;2023-04-24T08:06:53;14.37;;;5.37;;
1479;SDS011;732;51.698;4.886;2023-04-24T08:09:23;16.23;;;4.13;;
1479;SDS011;732;51.698;4.886;2023-04-24T08:11:53;15.73;;;4.40;;
1479;SDS011;732;51.698;4.886;2023-04-24T08:14:22;9.23;;;3.73;;
1479;SDS011;732;51.698;4.886;2023-04-24T08:16:53;14.17;;;4.20;;
1479;SDS011;732;51.698;4.886;2023-04-24T08:19:22;12.87;;;4.10;;
1479;SDS011;732;51.698;4.886;2023-04-24T08:21:51;16.07;;;4.77;;
1479;SDS011;732;51.698;4.886;2023-04-24T08:24:19;11.47;;;3.90;;
1479;SDS011;732;51.698;4.886;2023-04-24T08:26:50;21.47;;;5.00;;
1479;SDS011;732;51.698;4.886;2023-04-24T08:29:23;24.17;;;5.10;;
1479;SDS011;732;51.698;4.886;2023-04-24T08:31:56;20.93;;;4.20;;
1479;SDS011;732;51.698;4.886;2023-04-24T08:34:24;9.73;;;4.17;;
1479;SDS011;732;51.698;4.886;2023-04-24T08:36:52;13.70;;;4.13;;
1479;SDS011;732;51.698;4.886;2023-04-24T08:39:21;10.17;;;3.80;;
1479;SDS011;732;51.698;4.886;2023-04-24T08:41:52;19.00;;;4.20;;
1479;SDS011;732;51.698;4.886;2023-04-24T08:44:20;13.40;;;3.83;;
1479;SDS011;732;51.698;4.886;2023-04-24T08:46:49;18.77;;;5.50;;
1479;SDS011;732;51.698;4.886;2023-04-24T08:49:21;10.37;;;4.30;;
1479;SDS011;732;51.698;4.886;2023-04-24T08:51:52;12.87;;;5.20;;
1479;SDS011;732;51.698;4.886;2023-04-24T08:54:21;15.20;;;4.27;;
1479;SDS011;732;51.698;4.886;2023-04-24T08:56:49;18.77;;;4.30;;
1479;SDS011;732;51.698;4.886;2023-04-24T08:59:21;20.27;;;5.37;;
1479;SDS011;732;51.698;4.886;2023-04-24T09:01:49;16.30;;;4.20;;
1479;SDS011;732;51.698;4.886;2023-04-24T09:04:21;16.93;;;4.47;;
1479;SDS011;732;51.698;4.886;2023-04-24T09:06:54;12.60;;;3.93;;
1479;SDS011;732;51.698;4.886;2023-04-24T09:09:24;13.73;;;3.63;;
1479;SDS011;732;51.698;4.886;2023-04-24T09:11:53;9.27;;;3.60;;
1479;SDS011;732;51.698;4.886;2023-04-24T09:14:21;14.07;;;3.50;;
1479;SDS011;732;51.698;4.886;2023-04-24T09:16:53;14.00;;;3.03;;
1479;SDS011;732;51.698;4.886;2023-04-24T09:19:22;8.33;;;3.07;;
1479;SDS011;732;51.698;4.886;2023-04-24T09:21:51;9.97;;;2.80;;
1479;SDS011;732;51.698;4.886;2023-04-24T09:24:22;7.20;;;2.50;;
1479;SDS011;732;51.698;4.886;2023-04-24T09:26:55;8.40;;;3.30;;
1479;SDS011;732;51.698;4.886;2023-04-24T09:29:25;15.97;;;3.07;;
1479;SDS011;732;51.698;4.886;2023-04-24T09:31:53;8.53;;;2.30;;
1479;SDS011;732;51.698;4.886;2023-04-24T09:34:23;7.90;;;2.40;;
1479;SDS011;732;51.698;4.886;2023-04-24T09:36:53;6.40;;;2.37;;
1479;SDS011;732;51.698;4.886;2023-04-24T09:39:22;12.20;;;2.30;;
1479;SDS011;732;51.698;4.886;2023-04-24T09:41:52;6.80;;;2.30;;
1479;SDS011;732;51.698;4.886;2023-04-24T09:44:24;2.80;;;1.73;;
1479;SDS011;732;51.698;4.886;2023-04-24T09:46:55;8.53;;;1.80;;
1479;SDS011;732;51.698;4.886;2023-04-24T09:49:28;4.73;;;1.83;;
1479;SDS011;732;51.698;4.886;2023-04-24T09:52:03;7.20;;;2.00;;
1479;SDS011;732;51.698;4.886;2023-04-24T09:54:33;5.70;;;1.47;;
1479;SDS011;732;51.698;4.886;2023-04-24T09:57:06;3.70;;;1.33;;
1479;SDS011;732;51.698;4.886;2023-04-24T09:59:35;6.47;;;1.57;;
1479;SDS011;732;51.698;4.886;2023-04-24T10:02:16;5.03;;;1.50;;
1479;SDS011;732;51.698;4.886;2023-04-24T10:04:54;3.43;;;1.33;;
1479;SDS011;732;51.698;4.886;2023-04-24T10:07:26;3.20;;;1.60;;
1479;SDS011;732;51.698;4.886;2023-04-24T10:09:55;5.07;;;1.97;;
1479;SDS011;732;51.698;4.886;2023-04-24T10:12:26;6.73;;;1.73;;
1479;SDS011;732;51.698;4.886;2023-04-24T10:14:55;5.00;;;1.80;;
1479;SDS011;732;51.698;4.886;2023-04-24T10:17:24;5.10;;;1.60;;
1479;SDS011;732;51.698;4.886;2023-04-24T10:19:57;3.93;;;1.60;;
1479;SDS011;732;51.698;4.886;2023-04-24T10:22:27;4.90;;;1.47;;
1479;SDS011;732;51.698;4.886;2023-04-24T10:25:00;8.03;;;2.10;;
1479;SDS011;732;51.698;4.886;2023-04-24T10:27:31;7.87;;;1.80;;
1479;SDS011;732;51.698;4.886;2023-04-24T10:30:01;4.03;;;1.27;;
1479;SDS011;732;51.698;4.886;2023-04-24T10:32:30;6.23;;;1.47;;
1479;SDS011;732;51.698;4.886;2023-04-24T10:34:59;5.30;;;1.17;;
1479;SDS011;732;51.698;4.886;2023-04-24T10:37:33;5.73;;;1.33;;
1479;SDS011;732;51.698;4.886;2023-04-24T10:40:08;3.60;;;1.50;;
1479;SDS011;732;51.698;4.886;2023-04-24T10:42:39;2.70;;;1.10;;
1479;SDS011;732;51.698;4.886;2023-04-24T10:45:17;3.97;;;1.33;;
1479;SDS011;732;51.698;4.886;2023-04-24T10:47:51;6.10;;;1.10;;
1479;SDS011;732;51.698;4.886;2023-04-24T10:50:44;5.17;;;1.40;;
1479;SDS011;732;51.698;4.886;2023-04-24T10:53:19;4.50;;;1.33;;
1479;SDS011;732;51.698;4.886;2023-04-24T10:55:50;5.10;;;1.37;;
1479;SDS011;732;51.698;4.886;2023-04-24T10:58:21;7.27;;;2.20;;
1479;SDS011;732;51.698;4.886;2023-04-24T11:00:57;5.97;;;1.53;;
1479;SDS011;732;51.698;4.886;2023-04-24T11:03:29;4.40;;;1.33;;
1479;SDS011;732;51.698;4.886;2023-04-24T11:06:01;5.37;;;1.67;;
1479;SDS011;732;51.698;4.886;2023-04-24T11:08:37;12.80;;;1.70;;
1479;SDS011;732;51.698;4.886;2023-04-24T11:11:10;8.23;;;1.80;;
1479;SDS011;732;51.698;4.886;2023-04-24T11:16:44;5.07;;;2.50;;
1479;SDS011;732;51.698;4.886;2023-04-24T11:19:21;6.67;;;2.07;;
1479;SDS011;732;51.698;4.886;2023-04-24T11:21:56;6.70;;;2.03;;
1479;SDS011;732;51.698;4.886;2023-04-24T11:24:30;7.40;;;2.00;;
1479;SDS011;732;51.698;4.886;2023-04-24T11:27:16;7.23;;;1.40;;
1479;SDS011;732;51.698;4.886;2023-04-24T11:29:47;5.60;;;1.70;;
1479;SDS011;732;51.698;4.886;2023-04-24T11:32:26;1.40;;;1.20;;
1479;SDS011;732;51.698;4.886;2023-04-24T11:34:57;4.23;;;1.20;;
1479;SDS011;732;51.698;4.886;2023-04-24T11:37:29;5.50;;;1.50;;
1479;SDS011;732;51.698;4.886;2023-04-24T11:40:02;6.37;;;1.47;;
1479;SDS011;732;51.698;4.886;2023-04-24T11:42:33;4.63;;;1.23;;
1479;SDS011;732;51.698;4.886;2023-04-24T11:45:06;5.80;;;2.17;;
1479;SDS011;732;51.698;4.886;2023-04-24T11:47:36;4.77;;;1.60;;
1479;SDS011;732;51.698;4.886;2023-04-24T11:50:08;7.20;;;2.00;;
1479;SDS011;732;51.698;4.886;2023-04-24T11:52:42;3.63;;;1.40;;
1479;SDS011;732;51.698;4.886;2023-04-24T11:55:23;7.80;;;1.93;;
1479;SDS011;732;51.698;4.886;2023-04-24T11:57:54;4.77;;;1.63;;
1479;SDS011;732;51.698;4.886;2023-04-24T12:00:27;2.73;;;1.50;;
1479;SDS011;732;51.698;4.886;2023-04-24T12:03:04;8.27;;;2.00;;
1479;SDS011;732;51.698;4.886;2023-04-24T12:05:34;4.57;;;1.70;;
1479;SDS011;732;51.698;4.886;2023-04-24T12:08:04;3.27;;;1.60;;
1479;SDS011;732;51.698;4.886;2023-04-24T12:10:32;5.37;;;1.80;;
1479;SDS011;732;51.698;4.886;2023-04-24T12:13:02;6.93;;;2.60;;
1479;SDS011;732;51.698;4.886;2023-04-24T12:15:33;2.97;;;1.50;;
1479;SDS011;732;51.698;4.886;2023-04-24T12:18:01;4.17;;;1.43;;
1479;SDS011;732;51.698;4.886;2023-04-24T12:20:31;5.47;;;2.00;;
1479;SDS011;732;51.698;4.886;2023-04-24T12:23:03;3.17;;;1.50;;
1479;SDS011;732;51.698;4.886;2023-04-24T12:25:32;3.47;;;1.40;;
1479;SDS011;732;51.698;4.886;2023-04-24T12:28:09;4.47;;;2.00;;
1479;SDS011;732;51.698;4.886;2023-04-24T12:30:49;2.80;;;1.30;;
1479;SDS011;732;51.698;4.886;2023-04-24T12:33:17;2.40;;;1.50;;
1479;SDS011;732;51.698;4.886;2023-04-24T12:35:47;4.23;;;1.70;;
1479;SDS011;732;51.698;4.886;2023-04-24T12:38:22;4.87;;;2.00;;
1479;SDS011;732;51.698;4.886;2023-04-24T12:41:01;7.13;;;1.90;;
1479;SDS011;732;51.698;4.886;2023-04-24T12:43:30;2.53;;;1.60;;
1479;SDS011;732;51.698;4.886;2023-04-24T12:45:59;13.97;;;2.67;;
1479;SDS011;732;51.698;4.886;2023-04-24T12:48:27;5.60;;;1.73;;
1479;SDS011;732;51.698;4.886;2023-04-24T12:50:56;5.40;;;2.00;;
1479;SDS011;732;51.698;4.886;2023-04-24T12:53:29;4.30;;;1.83;;
1479;SDS011;732;51.698;4.886;2023-04-24T12:55:57;4.57;;;1.50;;
1479;SDS011;732;51.698;4.886;2023-04-24T12:58:25;5.90;;;1.90;;
1479;SDS011;732;51.698;4.886;2023-04-24T13:00:53;7.90;;;1.40;;
1479;SDS011;732;51.698;4.886;2023-04-24T13:03:22;4.73;;;1.60;;
1479;SDS011;732;51.698;4.886;2023-04-24T13:05:50;8.87;;;2.23;;
1479;SDS011;732;51.698;4.886;2023-04-24T13:08:18;8.03;;;2.20;;
1479;SDS011;732;51.698;4.886;2023-04-24T13:10:48;6.10;;;2.00;;
1479;SDS011;732;51.698;4.886;2023-04-24T13:13:18;3.63;;;2.00;;
1479;SDS011;732;51.698;4.886;2023-04-24T13:15:46;3.20;;;1.20;;
1479;SDS011;732;51.698;4.886;2023-04-24T13:18:14;2.80;;;1.50;;
1479;SDS011;732;51.698;4.886;2023-04-24T13:20:42;4.13;;;1.40;;
1479;SDS011;732;51.698;4.886;2023-04-24T13:23:12;5.00;;;1.90;;
1479;SDS011;732;51.698;4.886;2023-04-24T13:25:41;5.00;;;1.90;;
1479;SDS011;732;51.698;4.886;2023-04-24T13:28:10;6.67;;;2.17;;
1479;SDS011;732;51.698;4.886;2023-04-24T13:30:38;4.03;;;2.00;;
1479;SDS011;732;51.698;4.886;2023-04-24T13:33:06;5.63;;;1.80;;
1479;SDS011;732;51.698;4.886;2023-04-24T13:35:35;4.77;;;1.70;;
1479;SDS011;732;51.698;4.886;2023-04-24T13:38:03;9.80;;;2.40;;
1479;SDS011;732;51.698;4.886;2023-04-24T13:40:32;5.50;;;2.23;;
1479;SDS011;732;51.698;4.886;2023-04-24T13:43:01;6.03;;;1.80;;
1479;SDS011;732;51.698;4.886;2023-04-24T13:45:31;4.17;;;2.13;;
1479;SDS011;732;51.698;4.886;2023-04-24T13:47:59;7.57;;;2.70;;
1479;SDS011;732;51.698;4.886;2023-04-24T13:50:29;7.60;;;2.63;;
1479;SDS011;732;51.698;4.886;2023-04-24T13:52:57;11.10;;;2.93;;
1479;SDS011;732;51.698;4.886;2023-04-24T13:55:28;5.20;;;2.63;;
1479;SDS011;732;51.698;4.886;2023-04-24T13:57:57;11.17;;;3.10;;
1479;SDS011;732;51.698;4.886;2023-04-24T14:00:25;7.83;;;2.33;;
1479;SDS011;732;51.698;4.886;2023-04-24T14:02:55;8.60;;;2.67;;
1479;SDS011;732;51.698;4.886;2023-04-24T14:05:23;9.63;;;3.00;;
1479;SDS011;732;51.698;4.886;2023-04-24T14:07:51;7.80;;;2.87;;
1479;SDS011;732;51.698;4.886;2023-04-24T14:10:20;11.77;;;2.93;;
1479;SDS011;732;51.698;4.886;2023-04-24T14:12:48;10.53;;;3.60;;
1479;SDS011;732;51.698;4.886;2023-04-24T14:15:16;8.90;;;3.23;;
1479;SDS011;732;51.698;4.886;2023-04-24T14:17:44;7.33;;;2.90;;
1479;SDS011;732;51.698;4.886;2023-04-24T14:20:14;12.67;;;3.53;;
1479;SDS011;732;51.698;4.886;2023-04-24T14:22:42;4.77;;;2.80;;
1479;SDS011;732;51.698;4.886;2023-04-24T14:25:11;7.17;;;2.80;;
1479;SDS011;732;51.698;4.886;2023-04-24T14:27:39;8.30;;;3.50;;
1479;SDS011;732;51.698;4.886;2023-04-24T14:30:07;11.40;;;3.07;;
1479;SDS011;732;51.698;4.886;2023-04-24T14:32:37;8.20;;;2.87;;
1479;SDS011;732;51.698;4.886;2023-04-24T14:35:06;6.17;;;2.73;;
1479;SDS011;732;51.698;4.886;2023-04-24T14:37:37;7.03;;;2.90;;
1479;SDS011;732;51.698;4.886;2023-04-24T14:40:07;11.10;;;3.37;;
1479;SDS011;732;51.698;4.886;2023-04-24T14:42:57;16.17;;;3.40;;
1479;SDS011;732;51.698;4.886;2023-04-24T14:45:25;10.30;;;3.60;;
1479;SDS011;732;51.698;4.886;2023-04-24T14:47:54;9.57;;;3.10;;
1479;SDS011;732;51.698;4.886;2023-04-24T14:50:23;17.17;;;4.53;;
1479;SDS011;732;51.698;4.886;2023-04-24T14:52:55;12.33;;;3.87;;
1479;SDS011;732;51.698;4.886;2023-04-24T14:55:24;10.03;;;4.10;;
1479;SDS011;732;51.698;4.886;2023-04-24T14:57:53;14.77;;;4.50;;
1479;SDS011;732;51.698;4.886;2023-04-24T15:00:21;14.27;;;4.10;;
1479;SDS011;732;51.698;4.886;2023-04-24T15:02:50;12.90;;;4.30;;
1479;SDS011;732;51.698;4.886;2023-04-24T15:05:19;14.23;;;4.23;;
1479;SDS011;732;51.698;4.886;2023-04-24T15:07:47;10.23;;;4.10;;
1479;SDS011;732;51.698;4.886;2023-04-24T15:10:17;10.20;;;4.50;;
1479;SDS011;732;51.698;4.886;2023-04-24T15:12:48;13.47;;;4.33;;
1479;SDS011;732;51.698;4.886;2023-04-24T15:15:16;9.30;;;4.23;;
1479;SDS011;732;51.698;4.886;2023-04-24T15:17:45;13.07;;;4.70;;
1479;SDS011;732;51.698;4.886;2023-04-24T15:20:13;10.83;;;4.50;;
1479;SDS011;732;51.698;4.886;2023-04-24T15:22:42;10.20;;;4.00;;
1479;SDS011;732;51.698;4.886;2023-04-24T15:25:10;6.80;;;3.70;;
1479;SDS011;732;51.698;4.886;2023-04-24T15:27:40;6.10;;;3.73;;
1479;SDS011;732;51.698;4.886;2023-04-24T15:30:10;11.40;;;3.60;;
1479;SDS011;732;51.698;4.886;2023-04-24T15:32:39;13.10;;;3.80;;
1479;SDS011;732;51.698;4.886;2023-04-24T15:35:08;15.17;;;4.17;;
1479;SDS011;732;51.698;4.886;2023-04-24T15:37:37;11.57;;;4.33;;
1479;SDS011;732;51.698;4.886;2023-04-24T15:40:06;11.70;;;4.33;;